createdAt,value
2019-03-27T00:02:46.587Z,4.23
2019-03-27T00:05:51.017Z,4.47
2019-03-27T00:08:55.401Z,4.20
2019-03-27T00:11:59.845Z,4.67
2019-03-27T00:15:12.847Z,4.80
2019-03-27T00:18:11.016Z,4.63
2019-03-27T00:21:15.369Z,4.40
2019-03-27T00:24:19.722Z,5.43
2019-03-27T00:27:24.061Z,3.60
2019-03-27T00:30:28.451Z,3.60
2019-03-27T00:33:32.853Z,4.33
2019-03-27T00:36:37.194Z,4.80
2019-03-27T00:39:41.645Z,4.17
2019-03-27T00:42:45.974Z,4.97
2019-03-27T00:45:50.338Z,4.37
2019-03-27T00:48:54.720Z,4.57
2019-03-27T00:51:59.063Z,5.43
2019-03-27T00:55:03.495Z,4.97
2019-03-27T00:58:07.930Z,4.10
2019-03-27T01:01:14.217Z,5.13
2019-03-27T01:04:18.554Z,3.90
2019-03-27T01:07:23.050Z,4.30
2019-03-27T01:10:27.416Z,4.37
2019-03-27T01:13:31.906Z,4.33
2019-03-27T01:16:36.266Z,4.40
2019-03-27T01:19:40.678Z,4.03
2019-03-27T01:22:45.043Z,3.83
2019-03-27T01:25:49.416Z,4.33
2019-03-27T01:28:53.847Z,3.80
2019-03-27T01:31:58.176Z,4.20
2019-03-27T01:35:02.618Z,4.17
2019-03-27T01:38:06.984Z,4.80
2019-03-27T01:41:11.414Z,4.30
2019-03-27T01:44:15.871Z,4.40
2019-03-27T01:47:20.235Z,4.20
2019-03-27T01:50:24.608Z,4.57
2019-03-27T01:53:28.920Z,5.20
2019-03-27T01:56:33.394Z,4.77
2019-03-27T01:59:37.733Z,4.97
2019-03-27T02:02:42.089Z,5.00
2019-03-27T02:05:46.436Z,4.17
2019-03-27T02:08:50.791Z,5.43
2019-03-27T02:11:55.136Z,4.83
2019-03-27T02:14:59.525Z,4.03
2019-03-27T02:18:03.980Z,4.70
2019-03-27T02:21:08.495Z,4.40
2019-03-27T02:24:12.888Z,5.27
2019-03-27T02:27:17.235Z,4.70
2019-03-27T02:30:21.601Z,4.83
2019-03-27T02:33:25.958Z,5.50
2019-03-27T02:36:30.415Z,5.10
2019-03-27T02:39:34.802Z,5.07
2019-03-27T02:42:39.214Z,5.50
2019-03-27T02:45:43.707Z,5.00
2019-03-27T02:48:48.142Z,4.90
2019-03-27T02:51:52.508Z,5.17
2019-03-27T02:54:56.847Z,4.87
2019-03-27T02:58:01.277Z,5.03
2019-03-27T03:01:05.795Z,5.30
2019-03-27T03:04:10.255Z,5.03
2019-03-27T03:07:14.710Z,5.23
2019-03-27T03:10:19.507Z,5.20
2019-03-27T03:13:23.883Z,4.93
2019-03-27T03:16:41.366Z,5.00
2019-03-27T03:19:34.467Z,4.53
2019-03-27T03:22:38.841Z,4.87
2019-03-27T03:25:43.210Z,6.37
2019-03-27T03:28:47.649Z,4.73
2019-03-27T03:31:52.024Z,5.60
2019-03-27T03:34:56.415Z,5.70
2019-03-27T03:38:00.761Z,5.10
2019-03-27T03:41:05.320Z,4.50
2019-03-27T03:44:09.694Z,4.73
2019-03-27T03:47:14.065Z,4.87
2019-03-27T03:50:38.295Z,3.87
2019-03-27T03:53:42.803Z,3.67
2019-03-27T03:56:48.536Z,4.30
2019-03-27T03:59:53.574Z,3.83
2019-03-27T04:02:57.996Z,3.40
2019-03-27T04:06:02.337Z,4.23
2019-03-27T04:09:07.315Z,3.60
2019-03-27T04:12:11.660Z,3.83
2019-03-27T04:15:16.104Z,3.23
2019-03-27T04:18:20.446Z,3.00
2019-03-27T04:21:26.932Z,2.60
2019-03-27T04:24:30.837Z,2.97
2019-03-27T04:27:35.236Z,3.20
2019-03-27T04:30:39.577Z,2.63
2019-03-27T04:33:43.963Z,2.33
2019-03-27T04:36:48.313Z,2.73
2019-03-27T04:39:52.672Z,3.10
2019-03-27T04:42:57.033Z,2.77
2019-03-27T04:46:01.387Z,2.80
2019-03-27T04:49:07.617Z,2.63
2019-03-27T04:52:11.786Z,2.37
2019-03-27T04:55:16.119Z,3.63
2019-03-27T04:58:20.479Z,4.33
2019-03-27T05:01:24.798Z,3.17
2019-03-27T05:04:29.297Z,3.63
2019-03-27T05:07:33.643Z,3.07
2019-03-27T05:10:38.068Z,2.73
2019-03-27T05:13:42.472Z,2.37
2019-03-27T05:16:46.908Z,2.43
2019-03-27T05:19:51.312Z,2.77
2019-03-27T05:22:55.672Z,3.20
2019-03-27T05:26:00.016Z,2.93
2019-03-27T05:29:04.466Z,2.43
2019-03-27T05:32:08.842Z,2.57
2019-03-27T05:35:13.281Z,3.37
2019-03-27T05:38:17.666Z,3.57
2019-03-27T05:41:22.005Z,3.60
2019-03-27T05:44:26.347Z,3.77
2019-03-27T05:47:30.711Z,3.30
2019-03-27T05:50:35.161Z,2.97
2019-03-27T05:53:39.602Z,2.77
2019-03-27T05:56:43.930Z,2.83
2019-03-27T05:59:48.293Z,3.47
2019-03-27T06:02:52.654Z,2.80
2019-03-27T06:05:57.086Z,3.97
2019-03-27T06:09:01.502Z,3.20
2019-03-27T06:12:05.937Z,3.17
2019-03-27T06:15:10.374Z,2.53
2019-03-27T06:18:14.761Z,3.87
2019-03-27T06:21:19.110Z,3.93
2019-03-27T06:24:23.459Z,4.00
2019-03-27T06:27:27.778Z,3.33
2019-03-27T06:30:32.151Z,4.07
2019-03-27T06:33:36.485Z,2.97
2019-03-27T06:36:40.825Z,2.70
2019-03-27T06:39:45.155Z,2.80
2019-03-27T06:42:49.525Z,3.17
2019-03-27T06:45:53.908Z,3.17
2019-03-27T06:48:58.253Z,3.00
2019-03-27T06:52:02.678Z,2.87
2019-03-27T06:55:07.801Z,3.10
2019-03-27T06:58:12.171Z,3.17
2019-03-27T07:01:16.599Z,3.40
2019-03-27T07:04:20.979Z,3.27
2019-03-27T07:07:25.324Z,3.47
2019-03-27T07:10:29.686Z,3.80
2019-03-27T07:13:34.038Z,3.70
2019-03-27T07:16:38.422Z,3.53
2019-03-27T07:19:42.776Z,4.60
2019-03-27T07:22:47.163Z,4.30
2019-03-27T07:25:51.616Z,4.20
2019-03-27T07:28:55.991Z,4.37
2019-03-27T07:32:00.365Z,4.20
2019-03-27T07:35:04.893Z,3.60
2019-03-27T07:38:09.228Z,4.63
2019-03-27T07:41:13.603Z,3.90
2019-03-27T07:44:17.989Z,3.97
2019-03-27T07:47:22.665Z,4.70
2019-03-27T07:50:26.991Z,4.27
2019-03-27T07:53:31.347Z,4.73
2019-03-27T07:56:35.724Z,5.27
2019-03-27T07:59:40.071Z,4.70
2019-03-27T08:02:44.616Z,5.13
2019-03-27T08:05:49.063Z,4.77
2019-03-27T08:08:53.382Z,5.70
2019-03-27T08:11:57.750Z,5.03
2019-03-27T08:15:02.096Z,5.97
2019-03-27T08:18:06.545Z,5.23
2019-03-27T08:21:10.920Z,6.17
2019-03-27T08:24:15.456Z,5.63
2019-03-27T08:27:19.908Z,6.00
2019-03-27T08:30:24.430Z,5.30
2019-03-27T08:33:28.903Z,5.90
2019-03-27T08:36:33.294Z,5.23
2019-03-27T08:39:37.704Z,5.10
2019-03-27T08:42:42.096Z,6.40
2019-03-27T08:45:46.578Z,6.10
2019-03-27T08:48:51.060Z,5.40
2019-03-27T08:51:55.520Z,6.70
2019-03-27T08:54:59.990Z,5.33
2019-03-27T08:58:04.517Z,5.93
2019-03-27T09:01:09.087Z,5.60
2019-03-27T09:04:13.449Z,6.20
2019-03-27T09:07:17.932Z,6.40
2019-03-27T09:10:22.388Z,5.90
2019-03-27T09:13:26.897Z,6.97
2019-03-27T09:16:31.261Z,6.33
2019-03-27T09:19:36.467Z,6.87
2019-03-27T09:22:40.934Z,7.30
2019-03-27T09:25:45.412Z,6.23
2019-03-27T09:28:49.874Z,7.40
2019-03-27T09:31:54.249Z,7.10
2019-03-27T09:34:58.655Z,7.93
2019-03-27T09:38:03.143Z,7.50
2019-03-27T09:41:07.645Z,8.13
2019-03-27T09:44:12.206Z,7.87
2019-03-27T09:47:16.545Z,6.80
2019-03-27T09:50:20.961Z,7.70
2019-03-27T09:53:25.327Z,8.20
2019-03-27T09:56:29.690Z,8.13
2019-03-27T09:59:34.042Z,8.80
2019-03-27T10:02:38.500Z,8.07
2019-03-27T10:05:43.000Z,8.80
2019-03-27T10:08:47.557Z,7.73
2019-03-27T10:11:51.977Z,8.17
2019-03-27T10:14:56.347Z,7.37
2019-03-27T10:18:00.712Z,8.17
2019-03-27T10:21:05.347Z,8.67
2019-03-27T10:24:09.744Z,8.10
2019-03-27T10:27:14.096Z,8.70
2019-03-27T10:30:18.624Z,9.50
2019-03-27T10:33:23.073Z,9.10
2019-03-27T10:36:27.498Z,8.50
2019-03-27T10:39:31.851Z,8.87
2019-03-27T10:42:36.267Z,10.00
2019-03-27T10:45:40.722Z,10.33
2019-03-27T10:48:52.528Z,8.77
2019-03-27T10:51:51.241Z,9.13
2019-03-27T10:54:55.666Z,9.43
2019-03-27T10:58:00.136Z,9.30
2019-03-27T11:01:07.050Z,8.70
2019-03-27T11:04:10.596Z,8.93
2019-03-27T11:07:15.003Z,10.37
2019-03-27T11:10:19.567Z,12.00
2019-03-27T11:13:24.043Z,14.67
2019-03-27T11:16:28.394Z,16.83
2019-03-27T11:19:33.737Z,16.27
2019-03-27T11:22:38.284Z,48.60
2019-03-27T11:25:42.656Z,27.23
2019-03-27T11:28:47.004Z,10.80
2019-03-27T11:31:51.368Z,33.67
2019-03-27T11:34:55.837Z,17.90
2019-03-27T11:38:00.225Z,18.80
2019-03-27T11:41:04.779Z,33.13
2019-03-27T11:44:12.515Z,13.47
2019-03-27T11:47:15.483Z,12.07
2019-03-27T11:50:20.000Z,27.50
2019-03-27T11:53:24.338Z,36.10
2019-03-27T11:56:28.725Z,33.13
2019-03-27T11:59:33.119Z,33.50
2019-03-27T12:02:37.491Z,28.93
2019-03-27T12:05:41.926Z,40.50
2019-03-27T12:08:46.311Z,16.17
2019-03-27T12:11:50.661Z,7.97
2019-03-27T12:14:55.020Z,8.33
2019-03-27T12:17:59.407Z,9.57
2019-03-27T12:21:03.918Z,6.97
2019-03-27T12:24:08.450Z,5.87
2019-03-27T12:27:12.807Z,5.93
2019-03-27T12:30:17.359Z,6.23
2019-03-27T12:33:21.724Z,7.30
2019-03-27T12:36:26.069Z,5.83
2019-03-27T12:39:30.402Z,3.40
2019-03-27T12:42:34.749Z,3.90
2019-03-27T12:45:39.127Z,3.10
2019-03-27T12:48:43.510Z,2.87
2019-03-27T12:51:47.974Z,2.50
2019-03-27T12:54:52.345Z,2.50
2019-03-27T12:57:56.729Z,2.90
2019-03-27T13:01:01.143Z,4.23
2019-03-27T13:04:05.653Z,2.40
2019-03-27T13:07:10.107Z,1.90
2019-03-27T13:10:14.629Z,2.83
2019-03-27T13:13:19.004Z,2.20
2019-03-27T13:16:23.345Z,2.30
2019-03-27T13:19:27.679Z,2.10
2019-03-27T13:22:32.023Z,1.70
2019-03-27T13:25:36.452Z,2.20
2019-03-27T13:28:48.815Z,1.83
2019-03-27T13:31:46.966Z,1.87
2019-03-27T13:34:51.406Z,2.07
2019-03-27T13:37:55.788Z,2.33
2019-03-27T13:41:00.101Z,1.73
2019-03-27T13:44:04.586Z,1.93
2019-03-27T13:47:09.148Z,2.63
2019-03-27T13:50:15.053Z,2.73
2019-03-27T13:53:19.479Z,2.90
2019-03-27T13:56:23.841Z,3.03
2019-03-27T13:59:28.170Z,5.40
2019-03-27T14:02:32.553Z,2.67
2019-03-27T14:05:36.906Z,3.37
2019-03-27T14:08:41.343Z,5.70
2019-03-27T14:11:45.721Z,5.33
2019-03-27T14:14:50.870Z,4.47
2019-03-27T14:17:55.394Z,9.77
2019-03-27T14:20:59.840Z,5.70
2019-03-27T14:24:04.257Z,13.33
2019-03-27T14:27:08.698Z,29.27
2019-03-27T14:30:14.455Z,4.73
2019-03-27T14:33:18.974Z,9.57
2019-03-27T14:36:23.399Z,5.30
2019-03-27T14:39:27.840Z,5.13
2019-03-27T14:42:32.189Z,22.03
2019-03-27T14:45:36.531Z,17.73
2019-03-27T14:48:40.960Z,8.10
2019-03-27T14:51:45.313Z,6.40
2019-03-27T14:54:49.743Z,6.67
2019-03-27T14:57:54.105Z,6.83
2019-03-27T15:00:58.439Z,8.13
2019-03-27T15:04:02.865Z,8.57
2019-03-27T15:07:07.352Z,7.07
2019-03-27T15:10:11.754Z,6.40
2019-03-27T15:13:16.196Z,8.47
2019-03-27T15:16:20.519Z,21.23
2019-03-27T15:19:24.888Z,21.87
2019-03-27T15:22:29.230Z,13.73
2019-03-27T15:25:33.575Z,20.30
2019-03-27T15:28:37.915Z,18.80
2019-03-27T15:31:42.352Z,16.33
2019-03-27T15:34:46.710Z,31.23
2019-03-27T15:37:51.094Z,25.57
2019-03-27T15:40:55.493Z,19.00
2019-03-27T15:43:59.892Z,17.90
2019-03-27T15:47:04.456Z,15.70
2019-03-27T15:50:09.018Z,36.50
2019-03-27T15:53:13.458Z,41.37
2019-03-27T15:56:17.820Z,31.00
2019-03-27T15:59:22.239Z,44.07
2019-03-27T16:02:26.686Z,20.90
2019-03-27T16:05:31.082Z,67.60
2019-03-27T16:08:35.544Z,40.47
2019-03-27T16:11:39.937Z,61.40
2019-03-27T16:14:44.303Z,19.57
2019-03-27T16:17:48.665Z,26.30
2019-03-27T16:20:53.083Z,17.37
2019-03-27T16:24:06.170Z,24.10
2019-03-27T16:27:04.846Z,17.30
2019-03-27T16:30:11.492Z,31.97
2019-03-27T16:33:15.855Z,12.03
2019-03-27T16:36:20.221Z,15.30
2019-03-27T16:39:24.566Z,18.37
2019-03-27T16:42:29.059Z,13.03
2019-03-27T16:45:33.469Z,19.53
2019-03-27T16:48:38.017Z,13.70
2019-03-27T16:51:42.358Z,11.43
2019-03-27T16:54:46.686Z,11.97
2019-03-27T16:57:51.451Z,10.80
2019-03-27T17:00:56.036Z,9.57
2019-03-27T17:04:00.460Z,11.53
2019-03-27T17:07:04.976Z,12.40
2019-03-27T17:10:09.887Z,11.57
2019-03-27T17:13:14.325Z,18.23
2019-03-27T17:16:18.750Z,30.33
2019-03-27T17:19:23.101Z,20.93
2019-03-27T17:22:27.429Z,11.30
2019-03-27T17:25:31.851Z,14.40
2019-03-27T17:28:36.177Z,19.90
2019-03-27T17:31:40.528Z,21.23
2019-03-27T17:34:44.939Z,18.93
2019-03-27T17:37:49.301Z,9.33
2019-03-27T17:40:53.729Z,10.43
2019-03-27T17:43:58.096Z,13.47
2019-03-27T17:47:02.441Z,10.93
2019-03-27T17:50:07.579Z,9.60
2019-03-27T17:53:12.005Z,11.33
2019-03-27T17:56:16.442Z,11.53
2019-03-27T17:59:20.833Z,8.00
2019-03-27T18:02:25.187Z,9.13
2019-03-27T18:05:29.527Z,7.73
2019-03-27T18:08:33.961Z,7.30
2019-03-27T18:11:38.301Z,8.97
2019-03-27T18:14:42.664Z,7.33
2019-03-27T18:17:47.001Z,7.50
2019-03-27T18:20:51.328Z,8.03
2019-03-27T18:23:55.759Z,7.00
2019-03-27T18:27:00.199Z,7.70
2019-03-27T18:30:05.338Z,7.90
2019-03-27T18:33:09.762Z,8.27
2019-03-27T18:36:14.109Z,8.23
2019-03-27T18:39:18.574Z,12.17
2019-03-27T18:42:22.945Z,6.57
2019-03-27T18:45:27.373Z,7.23
2019-03-27T18:48:31.727Z,6.67
2019-03-27T18:51:36.093Z,7.67
2019-03-27T18:54:40.452Z,7.67
2019-03-27T18:57:44.824Z,8.00
2019-03-27T19:00:49.284Z,8.50
2019-03-27T19:03:53.697Z,7.73
2019-03-27T19:06:58.862Z,22.57
2019-03-27T19:10:03.438Z,31.13
2019-03-27T19:13:07.829Z,9.30
2019-03-27T19:16:12.170Z,8.17
2019-03-27T19:19:16.534Z,9.10
2019-03-27T19:22:20.865Z,8.33
2019-03-27T19:25:25.300Z,9.93
2019-03-27T19:28:29.661Z,8.87
2019-03-27T19:31:34.096Z,10.70
2019-03-27T19:34:38.436Z,8.93
2019-03-27T19:37:44.218Z,9.57
2019-03-27T19:40:48.659Z,10.00
2019-03-27T19:43:53.004Z,10.03
2019-03-27T19:46:57.454Z,11.47
2019-03-27T19:50:01.830Z,10.27
2019-03-27T19:53:06.289Z,10.03
2019-03-27T19:56:10.712Z,14.50
2019-03-27T19:59:15.553Z,9.93
2019-03-27T20:02:19.891Z,9.80
2019-03-27T20:05:24.415Z,10.50
2019-03-27T20:08:28.956Z,18.70
2019-03-27T20:11:33.369Z,11.07
2019-03-27T20:14:37.689Z,10.77
2019-03-27T20:17:42.192Z,10.43
2019-03-27T20:20:46.559Z,12.80
2019-03-27T20:23:51.038Z,10.90
2019-03-27T20:26:55.389Z,10.87
2019-03-27T20:29:59.750Z,10.10
2019-03-27T20:33:04.197Z,10.00
2019-03-27T20:36:08.558Z,9.50
2019-03-27T20:39:12.996Z,9.80
2019-03-27T20:42:17.348Z,9.97
2019-03-27T20:45:21.734Z,11.17
2019-03-27T20:48:26.108Z,11.57
2019-03-27T20:51:30.547Z,9.87
2019-03-27T20:54:34.921Z,10.33
2019-03-27T20:57:39.247Z,9.57
2019-03-27T21:00:43.695Z,9.57
2019-03-27T21:03:48.092Z,9.60
2019-03-27T21:06:52.515Z,10.07
2019-03-27T21:09:56.860Z,8.97
2019-03-27T21:13:01.234Z,9.90
2019-03-27T21:16:05.682Z,10.23
2019-03-27T21:19:10.112Z,10.30
2019-03-27T21:22:14.585Z,10.83
2019-03-27T21:25:18.947Z,9.83
2019-03-27T21:28:23.368Z,11.03
2019-03-27T21:31:27.721Z,10.37
2019-03-27T21:34:32.121Z,10.43
2019-03-27T21:37:36.741Z,10.33
2019-03-27T21:40:41.126Z,11.80
2019-03-27T21:43:45.542Z,10.90
2019-03-27T21:46:49.937Z,10.83
2019-03-27T21:49:54.330Z,11.27
2019-03-27T21:53:00.843Z,10.23
2019-03-27T21:56:04.860Z,11.63
2019-03-27T21:59:09.427Z,11.10
2019-03-27T22:02:13.864Z,11.13
2019-03-27T22:05:18.239Z,11.07
2019-03-27T22:08:22.703Z,11.87
2019-03-27T22:11:27.055Z,10.93
2019-03-27T22:14:31.459Z,11.43
2019-03-27T22:17:35.829Z,10.27
2019-03-27T22:20:40.261Z,11.27
2019-03-27T22:23:44.636Z,11.20
2019-03-27T22:26:49.054Z,10.90
2019-03-27T22:29:53.419Z,9.87
2019-03-27T22:32:57.757Z,10.30
2019-03-27T22:36:02.161Z,11.30
2019-03-27T22:39:08.829Z,10.73
2019-03-27T22:42:13.201Z,10.37
2019-03-27T22:45:17.651Z,11.87
2019-03-27T22:48:21.988Z,10.73
2019-03-27T22:51:26.334Z,10.90
2019-03-27T22:54:31.613Z,12.13
2019-03-27T22:57:35.989Z,10.90
2019-03-27T23:00:51.276Z,10.70
2019-03-27T23:03:55.708Z,11.30
2019-03-27T23:07:00.043Z,11.40
2019-03-27T23:10:04.595Z,11.00
2019-03-27T23:13:08.975Z,12.03
2019-03-27T23:16:13.397Z,11.77
2019-03-27T23:19:17.787Z,11.30
2019-03-27T23:22:22.121Z,13.13
2019-03-27T23:25:26.484Z,11.13
2019-03-27T23:28:30.835Z,12.90
2019-03-27T23:31:35.305Z,11.67
2019-03-27T23:34:39.654Z,12.97
2019-03-27T23:37:45.648Z,12.23
2019-03-27T23:40:50.039Z,11.73
2019-03-27T23:43:54.375Z,12.50
2019-03-27T23:46:58.761Z,11.53
2019-03-27T23:50:03.216Z,11.50
2019-03-27T23:53:07.722Z,11.40
2019-03-27T23:56:16.922Z,11.87
2019-03-27T23:59:18.248Z,11.93
